Portada
METAR-TAF:

METAR-TAF

Aeroports :

Hyderabad, Índia

latitud: 17-14-00N, longitud: 078-26-00E, altitud: 617 m

Observació

L'informe es va fer fa 46 minuts, a les 12:30 UTC
Vent 5 kt del Sud-Est
Temperatura 27°C
Humitat 66%
Pressió 1011 hPa
Visibilitat: 5000 m
Núvols disperses a una alçada de 1000 ft
Núvols disperses a una alçada de 2500 ft
Cel ennuvolat a una alçada de 10000 ft
calitja

METAR: VOHS 071230Z 13005KT 5000 HZ SCT010 SCT025 BKN100 27/20 Q1011 NOSIG

Hora: 18:46 (13:16 UTC)

Pronòstic

L'informe es va fer fa 2 hores i 16 minuts, a les 11:00 UTC
Pronòstic vàlid del 07 a les 12 UTC al 07 a les 21 UTC
Vent 6 kt del Sud/Sud-Est
Visibilitat: 6000 m
Núvols disperses a una alçada de 2000 ft
Núvols disperses a una alçada de 10000 ft
Temporalment
l' 07 a les 12 UTC al 07 a les 18 UTC
Visibilitat: 3000 m
Escasses núvols a una alçada de 3000 ft, Cumulonimbus.
tempesta, pluja

TAF: VOHS 071100Z 0712/0721 16006KT 6000 SCT020 SCT100 TEMPO 0712/0718 3000 TSRA FEW030CB

Observacions i pronòstics meteorològics de més de 4000 aeroports (METAR i TAF).

Les estacions disponibles són els punts grocs i vermells al mapa.

Posi el ratolí al punt desitjat per veure el nom de l'estació.

Feu clic per veure les observacions i els pronòstics meteorològics.

Per canviar el mapa: feu clic els botons verds amb una creu de color negre per apropar; al botó verd amb un guió per allunyar la imatge; o en les fletxes verdes per a mapes adjacents.


METAR-TAF: